sensor_id;sensor_type;location;lat;lon;timestamp;pressure;altitude;pressure_sealevel;temperature;humidity
20983;BME280;10650;51.528;6.748;2023-02-14T00:01:25;103303.94;;;6.78;78.47
20983;BME280;10650;51.528;6.748;2023-02-14T00:03:54;103307.19;;;6.72;78.52
20983;BME280;10650;51.528;6.748;2023-02-14T00:06:26;103303.56;;;6.70;78.52
20983;BME280;10650;51.528;6.748;2023-02-14T00:08:54;103304.31;;;6.67;78.53
20983;BME280;10650;51.528;6.748;2023-02-14T00:11:22;103308.66;;;6.65;78.41
20983;BME280;10650;51.528;6.748;2023-02-14T00:13:49;103307.91;;;6.68;78.44
20983;BME280;10650;51.528;6.748;2023-02-14T00:16:31;103297.22;;;6.66;78.44
20983;BME280;10650;51.528;6.748;2023-02-14T00:19:00;103305.72;;;6.59;78.25
20983;BME280;10650;51.528;6.748;2023-02-14T00:21:33;103307.25;;;6.54;78.29
20983;BME280;10650;51.528;6.748;2023-02-14T00:24:02;103290.41;;;6.53;78.50
20983;BME280;10650;51.528;6.748;2023-02-14T00:26:30;103300.09;;;6.53;78.60
20983;BME280;10650;51.528;6.748;2023-02-14T00:28:58;103288.56;;;6.52;78.52
20983;BME280;10650;51.528;6.748;2023-02-14T00:31:26;103292.94;;;6.52;78.66
20983;BME280;10650;51.528;6.748;2023-02-14T00:33:53;103295.47;;;6.49;78.43
20983;BME280;10650;51.528;6.748;2023-02-14T00:36:23;103292.53;;;6.43;78.42
20983;BME280;10650;51.528;6.748;2023-02-14T00:38:51;103291.63;;;6.42;78.43
20983;BME280;10650;51.528;6.748;2023-02-14T00:41:18;103296.94;;;6.42;78.45
20983;BME280;10650;51.528;6.748;2023-02-14T00:43:47;103294.22;;;6.40;78.29
20983;BME280;10650;51.528;6.748;2023-02-14T00:46:16;103297.75;;;6.41;78.29
20983;BME280;10650;51.528;6.748;2023-02-14T00:48:44;103297.69;;;6.39;78.13
20983;BME280;10650;51.528;6.748;2023-02-14T00:51:13;103288.56;;;6.34;78.20
20983;BME280;10650;51.528;6.748;2023-02-14T00:53:43;103288.56;;;6.34;78.19
20983;BME280;10650;51.528;6.748;2023-02-14T00:56:11;103297.47;;;6.35;78.06
20983;BME280;10650;51.528;6.748;2023-02-14T00:58:39;103285.78;;;6.31;78.29
20983;BME280;10650;51.528;6.748;2023-02-14T01:01:10;103282.50;;;6.37;78.40
20983;BME280;10650;51.528;6.748;2023-02-14T01:03:41;103287.88;;;6.38;77.94
20983;BME280;10650;51.528;6.748;2023-02-14T01:06:09;103291.56;;;6.40;78.29
20983;BME280;10650;51.528;6.748;2023-02-14T01:08:37;103303.00;;;6.39;78.03
20983;BME280;10650;51.528;6.748;2023-02-14T01:11:08;103302.19;;;6.40;77.80
20983;BME280;10650;51.528;6.748;2023-02-14T01:13:36;103297.75;;;6.41;77.71
20983;BME280;10650;51.528;6.748;2023-02-14T01:16:06;103299.59;;;6.42;77.73
20983;BME280;10650;51.528;6.748;2023-02-14T01:18:34;103303.06;;;6.41;78.21
20983;BME280;10650;51.528;6.748;2023-02-14T01:21:15;103308.38;;;6.41;77.70
20983;BME280;10650;51.528;6.748;2023-02-14T01:23:45;103305.72;;;6.41;77.99
20983;BME280;10650;51.528;6.748;2023-02-14T01:26:15;103299.66;;;6.44;77.63
20983;BME280;10650;51.528;6.748;2023-02-14T01:28:44;103295.88;;;6.38;77.82
20983;BME280;10650;51.528;6.748;2023-02-14T01:31:13;103296.41;;;6.31;77.95
20983;BME280;10650;51.528;6.748;2023-02-14T01:33:43;103296.03;;;6.23;78.26
20983;BME280;10650;51.528;6.748;2023-02-14T01:36:16;103299.66;;;6.26;78.31
20983;BME280;10650;51.528;6.748;2023-02-14T01:38:44;103292.44;;;6.23;78.15
20983;BME280;10650;51.528;6.748;2023-02-14T01:41:11;103299.34;;;6.19;78.52
20983;BME280;10650;51.528;6.748;2023-02-14T01:43:53;103293.97;;;6.18;78.32
20983;BME280;10650;51.528;6.748;2023-02-14T01:46:21;103297.44;;;6.17;78.20
20983;BME280;10650;51.528;6.748;2023-02-14T01:48:49;103293.91;;;6.16;78.65
20983;BME280;10650;51.528;6.748;2023-02-14T01:51:19;103295.69;;;6.17;78.37
20983;BME280;10650;51.528;6.748;2023-02-14T01:53:47;103291.91;;;6.12;77.97
20983;BME280;10650;51.528;6.748;2023-02-14T01:56:19;103289.28;;;6.12;78.07
20983;BME280;10650;51.528;6.748;2023-02-14T01:58:52;103291.00;;;6.12;78.25
20983;BME280;10650;51.528;6.748;2023-02-14T02:01:22;103284.78;;;6.11;77.82
20983;BME280;10650;51.528;6.748;2023-02-14T02:03:53;103283.97;;;6.12;78.21
20983;BME280;10650;51.528;6.748;2023-02-14T02:06:25;103285.59;;;6.10;78.13
20983;BME280;10650;51.528;6.748;2023-02-14T02:09:02;103279.25;;;6.06;78.17
20983;BME280;10650;51.528;6.748;2023-02-14T02:11:33;103280.75;;;6.01;78.16
20983;BME280;10650;51.528;6.748;2023-02-14T02:14:03;103286.47;;;5.93;78.11
20983;BME280;10650;51.528;6.748;2023-02-14T02:17:00;103288.06;;;5.89;78.20
20983;BME280;10650;51.528;6.748;2023-02-14T02:23:23;103278.72;;;5.79;78.22
20983;BME280;10650;51.528;6.748;2023-02-14T02:26:17;103278.56;;;5.76;78.40
20983;BME280;10650;51.528;6.748;2023-02-14T02:29:25;103273.00;;;5.71;78.67
20983;BME280;10650;51.528;6.748;2023-02-14T02:32:32;103271.22;;;5.70;78.52
20983;BME280;10650;51.528;6.748;2023-02-14T02:35:20;103267.56;;;5.68;78.45
20983;BME280;10650;51.528;6.748;2023-02-14T02:38:00;103259.59;;;5.68;78.26
20983;BME280;10650;51.528;6.748;2023-02-14T02:40:43;103263.19;;;5.69;78.28
20983;BME280;10650;51.528;6.748;2023-02-14T02:43:21;103258.78;;;5.69;78.52
20983;BME280;10650;51.528;6.748;2023-02-14T02:45:57;103257.94;;;5.70;78.43
20983;BME280;10650;51.528;6.748;2023-02-14T02:48:47;103256.94;;;5.68;78.27
20983;BME280;10650;51.528;6.748;2023-02-14T02:51:30;103260.25;;;5.64;78.57
20983;BME280;10650;51.528;6.748;2023-02-14T02:54:22;103254.06;;;5.64;78.22
20983;BME280;10650;51.528;6.748;2023-02-14T02:56:56;103250.50;;;5.63;78.23
20983;BME280;10650;51.528;6.748;2023-02-14T02:59:28;103258.47;;;5.63;78.38
20983;BME280;10650;51.528;6.748;2023-02-14T03:02:06;103253.09;;;5.62;78.12
20983;BME280;10650;51.528;6.748;2023-02-14T03:04:39;103254.66;;;5.58;77.94
20983;BME280;10650;51.528;6.748;2023-02-14T03:07:29;103248.38;;;5.56;78.13
20983;BME280;10650;51.528;6.748;2023-02-14T03:10:08;103250.84;;;5.53;78.08
20983;BME280;10650;51.528;6.748;2023-02-14T03:13:16;103256.34;;;5.56;78.31
20983;BME280;10650;51.528;6.748;2023-02-14T03:15:51;103251.94;;;5.57;78.23
20983;BME280;10650;51.528;6.748;2023-02-14T03:18:42;103248.31;;;5.54;78.22
20983;BME280;10650;51.528;6.748;2023-02-14T03:21:18;103246.63;;;5.57;78.03
20983;BME280;10650;51.528;6.748;2023-02-14T03:23:55;103247.44;;;5.55;78.03
20983;BME280;10650;51.528;6.748;2023-02-14T03:26:28;103249.13;;;5.53;78.31
20983;BME280;10650;51.528;6.748;2023-02-14T03:29:07;103249.94;;;5.52;78.02
20983;BME280;10650;51.528;6.748;2023-02-14T03:31:45;103251.53;;;5.49;77.70
20983;BME280;10650;51.528;6.748;2023-02-14T03:34:23;103250.69;;;5.50;77.86
20983;BME280;10650;51.528;6.748;2023-02-14T03:36:57;103258.56;;;5.48;78.14
20983;BME280;10650;51.528;6.748;2023-02-14T03:39:31;103255.69;;;5.44;78.16
20983;BME280;10650;51.528;6.748;2023-02-14T03:42:07;103261.81;;;5.43;77.99
20983;BME280;10650;51.528;6.748;2023-02-14T03:44:39;103262.72;;;5.43;78.34
20983;BME280;10650;51.528;6.748;2023-02-14T03:47:10;103265.47;;;5.45;78.51
20983;BME280;10650;51.528;6.748;2023-02-14T03:49:50;103267.25;;;5.46;78.41
20983;BME280;10650;51.528;6.748;2023-02-14T03:52:21;103260.16;;;5.45;78.61
20983;BME280;10650;51.528;6.748;2023-02-14T03:54:55;103266.28;;;5.44;78.73
20983;BME280;10650;51.528;6.748;2023-02-14T03:57:27;103266.22;;;5.42;78.69
20983;BME280;10650;51.528;6.748;2023-02-14T03:59:56;103275.13;;;5.44;78.88
20983;BME280;10650;51.528;6.748;2023-02-14T04:02:28;103272.41;;;5.43;78.16
20983;BME280;10650;51.528;6.748;2023-02-14T04:04:58;103275.06;;;5.43;78.65
20983;BME280;10650;51.528;6.748;2023-02-14T04:07:28;103271.44;;;5.41;78.48
20983;BME280;10650;51.528;6.748;2023-02-14T04:09:57;103275.91;;;5.42;78.81
20983;BME280;10650;51.528;6.748;2023-02-14T04:12:25;103265.38;;;5.43;78.42
20983;BME280;10650;51.528;6.748;2023-02-14T04:15:04;103266.38;;;5.45;78.98
20983;BME280;10650;51.528;6.748;2023-02-14T04:17:32;103260.25;;;5.46;78.45
20983;BME280;10650;51.528;6.748;2023-02-14T04:20:18;103272.41;;;5.43;78.56
20983;BME280;10650;51.528;6.748;2023-02-14T04:22:46;103268.78;;;5.41;78.88
20983;BME280;10650;51.528;6.748;2023-02-14T04:25:15;103267.09;;;5.43;78.89
20983;BME280;10650;51.528;6.748;2023-02-14T04:27:43;103267.84;;;5.40;78.56
20983;BME280;10650;51.528;6.748;2023-02-14T04:30:11;103261.72;;;5.41;78.73
20983;BME280;10650;51.528;6.748;2023-02-14T04:32:40;103257.09;;;5.37;78.94
20983;BME280;10650;51.528;6.748;2023-02-14T04:35:08;103250.81;;;5.35;79.04
20983;BME280;10650;51.528;6.748;2023-02-14T04:37:35;103252.44;;;5.33;79.18
20983;BME280;10650;51.528;6.748;2023-02-14T04:40:04;103252.44;;;5.33;79.10
20983;BME280;10650;51.528;6.748;2023-02-14T04:42:33;103251.72;;;5.35;78.85
20983;BME280;10650;51.528;6.748;2023-02-14T04:45:02;103251.72;;;5.35;79.25
20983;BME280;10650;51.528;6.748;2023-02-14T04:47:30;103252.63;;;5.36;79.21
20983;BME280;10650;51.528;6.748;2023-02-14T04:49:57;103241.25;;;5.38;79.05
20983;BME280;10650;51.528;6.748;2023-02-14T04:52:25;103235.97;;;5.38;79.04
20983;BME280;10650;51.528;6.748;2023-02-14T04:54:53;103236.13;;;5.42;79.51
20983;BME280;10650;51.528;6.748;2023-02-14T04:57:21;103236.28;;;5.45;79.33
20983;BME280;10650;51.528;6.748;2023-02-14T04:59:50;103231.97;;;5.47;79.49
20983;BME280;10650;51.528;6.748;2023-02-14T05:02:18;103228.50;;;5.48;79.58
20983;BME280;10650;51.528;6.748;2023-02-14T05:04:45;103230.47;;;5.52;79.62
20983;BME280;10650;51.528;6.748;2023-02-14T05:07:15;103233.22;;;5.53;79.36
20983;BME280;10650;51.528;6.748;2023-02-14T05:09:43;103233.28;;;5.55;79.27
20983;BME280;10650;51.528;6.748;2023-02-14T05:12:10;103231.53;;;5.55;79.60
20983;BME280;10650;51.528;6.748;2023-02-14T05:14:38;103232.47;;;5.56;79.44
20983;BME280;10650;51.528;6.748;2023-02-14T05:17:07;103226.22;;;5.55;79.59
20983;BME280;10650;51.528;6.748;2023-02-14T05:19:35;103228.88;;;5.55;79.14
20983;BME280;10650;51.528;6.748;2023-02-14T05:22:03;103225.31;;;5.55;79.52
20983;BME280;10650;51.528;6.748;2023-02-14T05:24:31;103225.25;;;5.53;79.63
20983;BME280;10650;51.528;6.748;2023-02-14T05:26:58;103220.84;;;5.54;79.65
20983;BME280;10650;51.528;6.748;2023-02-14T05:29:26;103215.53;;;5.54;79.54
20983;BME280;10650;51.528;6.748;2023-02-14T05:31:54;103224.31;;;5.53;79.55
20983;BME280;10650;51.528;6.748;2023-02-14T05:34:24;103218.94;;;5.51;79.40
20983;BME280;10650;51.528;6.748;2023-02-14T05:36:52;103216.28;;;5.51;79.54
20983;BME280;10650;51.528;6.748;2023-02-14T05:39:20;103206.53;;;5.50;79.63
20983;BME280;10650;51.528;6.748;2023-02-14T05:41:48;103209.34;;;5.53;79.68
20983;BME280;10650;51.528;6.748;2023-02-14T05:44:15;103210.97;;;5.51;80.06
20983;BME280;10650;51.528;6.748;2023-02-14T05:46:43;103211.91;;;5.52;79.96
20983;BME280;10650;51.528;6.748;2023-02-14T05:49:11;103208.34;;;5.51;80.11
20983;BME280;10650;51.528;6.748;2023-02-14T05:51:40;103207.44;;;5.51;80.28
20983;BME280;10650;51.528;6.748;2023-02-14T05:54:08;103208.34;;;5.51;80.43
20983;BME280;10650;51.528;6.748;2023-02-14T05:56:36;103207.50;;;5.52;79.99
20983;BME280;10650;51.528;6.748;2023-02-14T05:59:04;103213.72;;;5.53;79.87
20983;BME280;10650;51.528;6.748;2023-02-14T06:01:32;103205.69;;;5.51;79.71
20983;BME280;10650;51.528;6.748;2023-02-14T06:03:59;103208.34;;;5.51;79.76
20983;BME280;10650;51.528;6.748;2023-02-14T06:06:27;103210.09;;;5.51;80.34
20983;BME280;10650;51.528;6.748;2023-02-14T06:08:56;103217.81;;;5.46;80.01
20983;BME280;10650;51.528;6.748;2023-02-14T06:11:24;103220.47;;;5.46;80.51
20983;BME280;10650;51.528;6.748;2023-02-14T06:13:52;103223.13;;;5.46;80.50
20983;BME280;10650;51.528;6.748;2023-02-14T06:16:19;103216.13;;;5.48;80.43
20983;BME280;10650;51.528;6.748;2023-02-14T06:18:47;103224.09;;;5.48;80.28
20983;BME280;10650;51.528;6.748;2023-02-14T06:21:15;103225.09;;;5.50;80.46
20983;BME280;10650;51.528;6.748;2023-02-14T06:23:43;103227.81;;;5.52;80.23
20983;BME280;10650;51.528;6.748;2023-02-14T06:26:12;103236.59;;;5.51;80.20
20983;BME280;10650;51.528;6.748;2023-02-14T06:28:40;103224.09;;;5.48;79.83
20983;BME280;10650;51.528;6.748;2023-02-14T06:31:14;103232.91;;;5.47;80.46
20983;BME280;10650;51.528;6.748;2023-02-14T06:33:42;103228.41;;;5.46;80.03
20983;BME280;10650;51.528;6.748;2023-02-14T06:36:11;103232.72;;;5.44;80.51
20983;BME280;10650;51.528;6.748;2023-02-14T06:38:38;103237.19;;;5.45;80.34
20983;BME280;10650;51.528;6.748;2023-02-14T06:41:07;103239.91;;;5.47;80.72
20983;BME280;10650;51.528;6.748;2023-02-14T06:43:37;103245.38;;;5.50;80.71
20983;BME280;10650;51.528;6.748;2023-02-14T06:46:05;103242.06;;;5.54;80.44
20983;BME280;10650;51.528;6.748;2023-02-14T06:48:33;103247.44;;;5.55;80.37
20983;BME280;10650;51.528;6.748;2023-02-14T06:51:01;103258.06;;;5.55;80.66
20983;BME280;10650;51.528;6.748;2023-02-14T06:53:29;103255.47;;;5.57;80.25
20983;BME280;10650;51.528;6.748;2023-02-14T06:55:57;103255.47;;;5.57;80.28
20983;BME280;10650;51.528;6.748;2023-02-14T06:58:24;103259.97;;;5.58;80.10
20983;BME280;10650;51.528;6.748;2023-02-14T07:00:55;103251.09;;;5.58;80.09
20983;BME280;10650;51.528;6.748;2023-02-14T07:03:24;103254.66;;;5.58;80.14
20983;BME280;10650;51.528;6.748;2023-02-14T07:05:52;103251.09;;;5.58;80.07
20983;BME280;10650;51.528;6.748;2023-02-14T07:08:20;103253.91;;;5.61;79.78
20983;BME280;10650;51.528;6.748;2023-02-14T07:10:54;103252.16;;;5.61;79.89
20983;BME280;10650;51.528;6.748;2023-02-14T07:13:22;103252.31;;;5.64;79.71
20983;BME280;10650;51.528;6.748;2023-02-14T07:15:50;103250.50;;;5.63;80.06
20983;BME280;10650;51.528;6.748;2023-02-14T07:18:19;103246.19;;;5.65;79.79
20983;BME280;10650;51.528;6.748;2023-02-14T07:20:48;103252.56;;;5.69;79.71
20983;BME280;10650;51.528;6.748;2023-02-14T07:23:16;103246.41;;;5.70;80.04
20983;BME280;10650;51.528;6.748;2023-02-14T07:25:44;103250.97;;;5.72;79.68
20983;BME280;10650;51.528;6.748;2023-02-14T07:28:11;103241.44;;;5.76;79.90
20983;BME280;10650;51.528;6.748;2023-02-14T07:30:39;103258.31;;;5.78;79.47
20983;BME280;10650;51.528;6.748;2023-02-14T07:33:07;103255.75;;;5.80;79.63
20983;BME280;10650;51.528;6.748;2023-02-14T07:35:36;103254.19;;;5.83;79.64
20983;BME280;10650;51.528;6.748;2023-02-14T07:38:04;103256.16;;;5.87;79.70
20983;BME280;10650;51.528;6.748;2023-02-14T07:40:33;103254.56;;;5.91;79.66
20983;BME280;10650;51.528;6.748;2023-02-14T07:43:01;103250.31;;;5.95;79.75
20983;BME280;10650;51.528;6.748;2023-02-14T07:45:29;103245.28;;;5.99;79.46
20983;BME280;10650;51.528;6.748;2023-02-14T07:47:56;103245.44;;;6.02;79.14
20983;BME280;10650;51.528;6.748;2023-02-14T07:50:28;103250.06;;;6.06;79.54
20983;BME280;10650;51.528;6.748;2023-02-14T07:52:57;103253.81;;;6.12;79.01
20983;BME280;10650;51.528;6.748;2023-02-14T07:55:25;103253.94;;;6.13;79.05
20983;BME280;10650;51.528;6.748;2023-02-14T07:57:52;103258.53;;;6.17;79.21
20983;BME280;10650;51.528;6.748;2023-02-14T08:00:21;103264.09;;;6.22;79.33
20983;BME280;10650;51.528;6.748;2023-02-14T08:02:49;103261.50;;;6.23;79.22
20983;BME280;10650;51.528;6.748;2023-02-14T08:05:21;103260.91;;;6.29;79.06
20983;BME280;10650;51.528;6.748;2023-02-14T08:07:49;103260.22;;;6.33;78.87
20983;BME280;10650;51.528;6.748;2023-02-14T08:10:19;103261.19;;;6.35;78.67
20983;BME280;10650;51.528;6.748;2023-02-14T08:12:47;103261.34;;;6.38;79.00
20983;BME280;10650;51.528;6.748;2023-02-14T08:15:31;103258.91;;;6.43;78.66
20983;BME280;10650;51.528;6.748;2023-02-14T08:18:17;103259.16;;;6.48;78.71
20983;BME280;10650;51.528;6.748;2023-02-14T08:20:46;103255.78;;;6.52;78.38
20983;BME280;10650;51.528;6.748;2023-02-14T08:23:16;103253.34;;;6.56;78.57
20983;BME280;10650;51.528;6.748;2023-02-14T08:25:46;103252.75;;;6.62;78.50
20983;BME280;10650;51.528;6.748;2023-02-14T08:28:14;103253.84;;;6.67;78.40
20983;BME280;10650;51.528;6.748;2023-02-14T08:30:43;103261.19;;;6.73;77.97
20983;BME280;10650;51.528;6.748;2023-02-14T08:33:11;103258.75;;;6.78;78.00
20983;BME280;10650;51.528;6.748;2023-02-14T08:35:39;103253.75;;;6.84;77.72
20983;BME280;10650;51.528;6.748;2023-02-14T08:38:07;103248.56;;;6.87;77.39
20983;BME280;10650;51.528;6.748;2023-02-14T08:40:35;103248.72;;;6.90;76.81
20983;BME280;10650;51.528;6.748;2023-02-14T08:43:05;103256.88;;;6.95;77.20
20983;BME280;10650;51.528;6.748;2023-02-14T08:45:33;103244.72;;;7.00;77.04
20983;BME280;10650;51.528;6.748;2023-02-14T08:48:02;103241.38;;;7.04;76.73
20983;BME280;10650;51.528;6.748;2023-02-14T08:50:30;103260.13;;;7.07;76.34
20983;BME280;10650;51.528;6.748;2023-02-14T08:52:58;103261.31;;;7.14;76.27
20983;BME280;10650;51.528;6.748;2023-02-14T08:55:26;103254.38;;;7.17;76.20
20983;BME280;10650;51.528;6.748;2023-02-14T08:57:54;103249.41;;;7.25;76.33
20983;BME280;10650;51.528;6.748;2023-02-14T09:00:24;103250.59;;;7.32;76.32
20983;BME280;10650;51.528;6.748;2023-02-14T09:02:52;103244.50;;;7.34;75.83
20983;BME280;10650;51.528;6.748;2023-02-14T09:05:21;103249.13;;;7.38;75.82
20983;BME280;10650;51.528;6.748;2023-02-14T09:07:50;103248.41;;;7.42;75.19
20983;BME280;10650;51.528;6.748;2023-02-14T09:10:18;103237.06;;;7.47;75.09
20983;BME280;10650;51.528;6.748;2023-02-14T09:12:45;103235.50;;;7.52;74.83
20983;BME280;10650;51.528;6.748;2023-02-14T09:15:13;103234.84;;;7.57;74.89
20983;BME280;10650;51.528;6.748;2023-02-14T09:17:42;103237.72;;;7.62;74.74
20983;BME280;10650;51.528;6.748;2023-02-14T09:20:12;103235.41;;;7.70;74.41
20983;BME280;10650;51.528;6.748;2023-02-14T09:22:41;103220.50;;;7.75;74.31
20983;BME280;10650;51.528;6.748;2023-02-14T09:25:09;103220.84;;;7.83;74.19
20983;BME280;10650;51.528;6.748;2023-02-14T09:27:38;103212.22;;;7.88;74.07
20983;BME280;10650;51.528;6.748;2023-02-14T09:30:09;103211.50;;;7.92;73.61
20983;BME280;10650;51.528;6.748;2023-02-14T09:32:37;103206.31;;;7.95;73.09
20983;BME280;10650;51.528;6.748;2023-02-14T09:35:07;103202.78;;;7.96;72.97
20983;BME280;10650;51.528;6.748;2023-02-14T09:37:51;103199.47;;;8.02;73.12
20983;BME280;10650;51.528;6.748;2023-02-14T09:40:20;103200.63;;;8.09;72.70
20983;BME280;10650;51.528;6.748;2023-02-14T09:42:52;103199.06;;;8.14;72.87
20983;BME280;10650;51.528;6.748;2023-02-14T09:45:26;103189.56;;;8.21;72.66
20983;BME280;10650;51.528;6.748;2023-02-14T09:47:57;103195.19;;;8.28;72.59
20983;BME280;10650;51.528;6.748;2023-02-14T09:50:32;103199.94;;;8.36;72.56
20983;BME280;10650;51.528;6.748;2023-02-14T09:53:07;103199.25;;;8.41;72.25
20983;BME280;10650;51.528;6.748;2023-02-14T09:55:44;103201.28;;;8.47;71.76
20983;BME280;10650;51.528;6.748;2023-02-14T09:58:15;103200.69;;;8.54;71.93
20983;BME280;10650;51.528;6.748;2023-02-14T10:00:48;103200.97;;;8.62;71.39
20983;BME280;10650;51.528;6.748;2023-02-14T10:03:35;103201.34;;;8.71;71.94
20983;BME280;10650;51.528;6.748;2023-02-14T10:06:15;103197.06;;;8.76;71.62
20983;BME280;10650;51.528;6.748;2023-02-14T10:08:55;103192.97;;;8.86;71.50
20983;BME280;10650;51.528;6.748;2023-02-14T10:11:28;103190.47;;;8.91;70.68
20983;BME280;10650;51.528;6.748;2023-02-14T10:14:00;103189.75;;;8.95;69.86
20983;BME280;10650;51.528;6.748;2023-02-14T10:16:32;103194.41;;;9.00;70.30
20983;BME280;10650;51.528;6.748;2023-02-14T10:19:06;103193.72;;;9.06;70.64
20983;BME280;10650;51.528;6.748;2023-02-14T10:21:42;103194.91;;;9.14;70.04
20983;BME280;10650;51.528;6.748;2023-02-14T10:24:17;103194.19;;;9.18;69.65
20983;BME280;10650;51.528;6.748;2023-02-14T10:26:49;103195.28;;;9.25;69.73
20983;BME280;10650;51.528;6.748;2023-02-14T10:29:18;103193.69;;;9.30;69.96
20983;BME280;10650;51.528;6.748;2023-02-14T10:31:49;103191.28;;;9.38;69.43
20983;BME280;10650;51.528;6.748;2023-02-14T10:34:26;103184.38;;;9.43;69.36
20983;BME280;10650;51.528;6.748;2023-02-14T10:37:14;103185.53;;;9.51;69.46
20983;BME280;10650;51.528;6.748;2023-02-14T10:40:11;103181.34;;;9.60;69.29
20983;BME280;10650;51.528;6.748;2023-02-14T10:42:49;103183.31;;;9.65;68.71
20983;BME280;10650;51.528;6.748;2023-02-14T10:45:26;103179.94;;;9.71;68.88
20983;BME280;10650;51.528;6.748;2023-02-14T10:48:02;103173.91;;;9.77;68.44
20983;BME280;10650;51.528;6.748;2023-02-14T10:50:37;103180.38;;;9.83;68.93
20983;BME280;10650;51.528;6.748;2023-02-14T10:53:14;103181.44;;;9.89;67.93
20983;BME280;10650;51.528;6.748;2023-02-14T10:55:48;103174.41;;;9.92;68.07
20983;BME280;10650;51.528;6.748;2023-02-14T10:58:21;103169.28;;;9.98;68.33
20983;BME280;10650;51.528;6.748;2023-02-14T11:00:54;103164.09;;;10.03;67.03
20983;BME280;10650;51.528;6.748;2023-02-14T11:03:26;103165.19;;;10.10;67.46
20983;BME280;10650;51.528;6.748;2023-02-14T11:05:55;103161.75;;;10.14;66.90
20983;BME280;10650;51.528;6.748;2023-02-14T11:08:26;103158.28;;;10.16;66.03
20983;BME280;10650;51.528;6.748;2023-02-14T11:10:58;103150.44;;;10.22;66.67
20983;BME280;10650;51.528;6.748;2023-02-14T11:13:32;103154.22;;;10.29;66.38
20983;BME280;10650;51.528;6.748;2023-02-14T11:16:02;103144.66;;;10.36;66.24
20983;BME280;10650;51.528;6.748;2023-02-14T11:18:31;103143.06;;;10.43;65.20
20983;BME280;10650;51.528;6.748;2023-02-14T11:21:04;103137.97;;;10.50;65.43
20983;BME280;10650;51.528;6.748;2023-02-14T11:23:36;103139.97;;;10.58;65.50
20983;BME280;10650;51.528;6.748;2023-02-14T11:26:08;103142.84;;;10.65;65.97
20983;BME280;10650;51.528;6.748;2023-02-14T11:28:42;103138.50;;;10.69;64.90
20983;BME280;10650;51.528;6.748;2023-02-14T11:31:12;103144.88;;;10.74;64.50
20983;BME280;10650;51.528;6.748;2023-02-14T11:33:41;103145.88;;;10.78;63.99
20983;BME280;10650;51.528;6.748;2023-02-14T11:36:11;103141.56;;;10.83;64.20
20983;BME280;10650;51.528;6.748;2023-02-14T11:38:42;103135.47;;;10.88;63.93
20983;BME280;10650;51.528;6.748;2023-02-14T11:41:13;103132.88;;;10.91;63.34
20983;BME280;10650;51.528;6.748;2023-02-14T11:43:43;103130.34;;;10.96;63.80
20983;BME280;10650;51.528;6.748;2023-02-14T11:46:13;103131.28;;;10.98;63.40
20983;BME280;10650;51.528;6.748;2023-02-14T11:48:59;103120.66;;;11.01;63.06
20983;BME280;10650;51.528;6.748;2023-02-14T11:51:29;103119.72;;;10.99;63.33
20983;BME280;10650;51.528;6.748;2023-02-14T11:54:01;103101.03;;;11.01;62.94
20983;BME280;10650;51.528;6.748;2023-02-14T11:56:52;103105.69;;;11.08;62.91
20983;BME280;10650;51.528;6.748;2023-02-14T11:59:27;103098.63;;;11.12;63.35
20983;BME280;10650;51.528;6.748;2023-02-14T12:01:59;103096.06;;;11.15;63.40
20983;BME280;10650;51.528;6.748;2023-02-14T12:04:32;103097.06;;;11.20;63.42
20983;BME280;10650;51.528;6.748;2023-02-14T12:07:17;103082.84;;;11.21;62.94
20983;BME280;10650;51.528;6.748;2023-02-14T12:10:04;103086.44;;;11.23;63.54
20983;BME280;10650;51.528;6.748;2023-02-14T12:12:34;103084.66;;;11.22;63.60
20983;BME280;10650;51.528;6.748;2023-02-14T12:18:22;103080.31;;;11.27;63.58
20983;BME280;10650;51.528;6.748;2023-02-14T12:20:58;103071.38;;;11.27;63.37
20983;BME280;10650;51.528;6.748;2023-02-14T12:23:36;103064.28;;;11.29;63.22
20983;BME280;10650;51.528;6.748;2023-02-14T12:26:16;103062.56;;;11.31;63.03
20983;BME280;10650;51.528;6.748;2023-02-14T12:28:50;103050.16;;;11.34;62.83
20983;BME280;10650;51.528;6.748;2023-02-14T12:31:23;103050.34;;;11.40;63.73
20983;BME280;10650;51.528;6.748;2023-02-14T12:33:51;103045.94;;;11.44;63.58
20983;BME280;10650;51.528;6.748;2023-02-14T12:36:32;103050.50;;;11.48;63.10
20983;BME280;10650;51.528;6.748;2023-02-14T12:39:09;103045.25;;;11.53;63.36
20983;BME280;10650;51.528;6.748;2023-02-14T12:41:47;103041.72;;;11.54;63.07
20983;BME280;10650;51.528;6.748;2023-02-14T12:44:27;103036.47;;;11.58;63.23
20983;BME280;10650;51.528;6.748;2023-02-14T12:47:07;103032.13;;;11.64;62.72
20983;BME280;10650;51.528;6.748;2023-02-14T12:49:52;103030.44;;;11.69;62.20
20983;BME280;10650;51.528;6.748;2023-02-14T12:52:43;103026.91;;;11.70;62.20
20983;BME280;10650;51.528;6.748;2023-02-14T12:58:20;103019.00;;;11.76;61.69
20983;BME280;10650;51.528;6.748;2023-02-14T13:00:58;103030.63;;;11.76;61.57
20983;BME280;10650;51.528;6.748;2023-02-14T13:03:42;103020.00;;;11.80;61.70
20983;BME280;10650;51.528;6.748;2023-02-14T13:06:17;103013.81;;;11.82;61.59
20983;BME280;10650;51.528;6.748;2023-02-14T13:09:01;103009.38;;;11.84;61.67
20983;BME280;10650;51.528;6.748;2023-02-14T13:11:41;103006.72;;;11.86;61.07
20983;BME280;10650;51.528;6.748;2023-02-14T13:14:27;102998.78;;;11.90;61.36
20983;BME280;10650;51.528;6.748;2023-02-14T13:17:02;102993.41;;;11.90;60.95
20983;BME280;10650;51.528;6.748;2023-02-14T13:19:35;102998.81;;;11.92;61.25
20983;BME280;10650;51.528;6.748;2023-02-14T13:22:13;102992.66;;;11.94;61.12
20983;BME280;10650;51.528;6.748;2023-02-14T13:24:46;102998.06;;;11.98;60.92
20983;BME280;10650;51.528;6.748;2023-02-14T13:27:18;102993.66;;;12.00;60.48
20983;BME280;10650;51.528;6.748;2023-02-14T13:29:52;102984.81;;;12.02;60.66
20983;BME280;10650;51.528;6.748;2023-02-14T13:32:24;102989.28;;;12.05;60.29
20983;BME280;10650;51.528;6.748;2023-02-14T13:34:56;102980.38;;;12.06;60.01